MDT,Max TemperatureF,Mean TemperatureF,Min TemperatureF,Max Dew PointF,MeanDew PointF,Min DewpointF,Max Humidity, Mean Humidity, Min Humidity, Max Sea Level PressureIn, Mean Sea Level PressureIn, Min Sea Level PressureIn, Max VisibilityMiles, Mean VisibilityMiles, Min VisibilityMiles, Max Wind SpeedMPH, Mean Wind SpeedMPH, Max Gust SpeedMPH,PrecipitationIn, CloudCover, Events, WindDirDegrees
2013-4-1,50,41,32,27,25,18,78,56,33,30.20,30.07,29.98,10,10,10,20,11,25,0.00,3,,145
2013-4-2,34,32,29,31,28,26,100,89,78,30.23,30.13,30.07,10,4,0,13,5,15,0.01,8,Fog-Rain-Snow,158
2013-4-3,53,42,30,34,31,26,100,72,44,30.25,30.17,30.07,10,5,0,14,6,17,T,4,Fog-Snow,166
2013-4-4,66,51,35,28,21,16,70,43,15,30.20,30.08,29.96,10,10,10,20,8,26,0.00,0,,215
2013-4-5,74,56,38,27,19,10,54,32,9,29.97,29.77,29.61,10,10,10,36,11,46,0.00,2,,331
2013-4-6,64,51,37,32,23,19,58,39,19,29.83,29.79,29.71,10,10,10,24,10,31,T,2,Rain,59
2013-4-7,67,52,36,32,22,13,76,45,13,29.81,29.70,29.61,10,10,10,32,10,44,0.00,1,,6
2013-4-8,69,49,29,33,22,14,76,45,13,29.64,29.49,29.27,10,10,7,47,19,59,0.00,2,,100
2013-4-9,31,21,10,20,6,0,69,59,49,30.27,29.95,29.54,10,8,0,49,33,61,T,7,Snow,337
2013-4-10,35,22,8,12,5,-1,69,51,32,30.28,30.16,29.99,10,10,10,23,9,29,0.00,2,,210
2013-4-11,57,35,13,31,20,6,70,47,24,30.03,29.85,29.76,10,10,10,24,7,37,T,4,Rain,27
2013-4-12,56,43,30,34,29,23,85,57,29,30.01,29.92,29.84,10,10,9,22,10,33,T,4,Rain,132
2013-4-13,71,51,31,33,26,8,100,55,10,30.03,29.72,29.26,10,5,0,35,11,45,0.00,4,Fog,181
2013-4-14,57,47,37,39,18,4,100,56,12,29.72,29.51,29.24,10,10,10,37,15,45,0.05,4,,299
2013-4-15,55,42,29,23,15,5,64,40,16,30.00,29.77,29.60,10,10,8,33,18,39,T,6,Snow,150
2013-4-16,45,36,26,27,23,19,75,60,45,30.06,29.96,29.83,10,7,2,26,17,31,T,7,Snow,137
2013-4-17,32,26,20,28,23,11,100,84,68,30.17,29.94,29.83,10,3,0,31,14,40,0.17,8,Fog-Snow,35
2013-4-18,33,25,16,24,14,7,92,71,50,30.30,30.19,30.02,10,8,1,23,9,29,0.01,5,Snow,318
2013-4-19,54,37,20,19,13,7,71,45,19,30.29,30.11,29.97,10,10,9,18,6,24,0.00,1,,170
2013-4-20,57,43,28,36,24,17,85,54,22,30.07,29.94,29.84,10,10,7,22,5,29,0.02,4,Rain,335
2013-4-21,61,48,34,33,24,14,92,54,16,30.06,29.99,29.93,10,10,10,18,7,30,0.00,2,,53
2013-4-22,60,42,24,36,25,15,78,52,26,30.20,29.98,29.82,10,9,4,39,17,46,T,4,Rain-Snow,1
2013-4-23,27,24,20,22,18,15,91,80,68,30.39,30.24,30.11,10,3,0,16,7,18,0.07,7,Fog-Snow,87
2013-4-24,52,35,18,22,16,12,84,54,23,30.36,30.27,30.16,10,10,10,16,6,22,0.00,1,,125
2013-4-25,69,49,29,31,21,14,54,35,16,30.22,30.01,29.80,10,10,10,30,8,40,0.00,1,,72
2013-4-26,67,55,42,27,16,6,42,26,10,30.19,30.03,29.86,10,10,10,25,13,30,0.00,4,,354
2013-4-27,73,55,37,26,15,6,53,31,8,30.17,30.05,29.94,10,10,10,17,7,25,0.00,0,,1
2013-4-28,78,60,41,22,15,8,36,22,7,30.08,29.83,29.70,10,10,10,20,7,24,0.00,2,,341
2013-4-29,79,62,45,30,22,12,50,29,8,29.78,29.63,29.50,10,10,10,24,10,31,0.00,1,,265
2013-4-30,71,56,41,34,26,14,56,36,16,29.83,29.60,29.47,10,10,10,29,13,36,0.00,2,,77